createdAt,value
2018-07-30T00:02:18.101Z,12.30
2018-07-30T00:04:46.666Z,12.90
2018-07-30T00:07:14.771Z,12.27
2018-07-30T00:09:43.275Z,13.90
2018-07-30T00:12:11.697Z,12.70
2018-07-30T00:14:40.119Z,13.30
2018-07-30T00:17:08.663Z,13.17
2018-07-30T00:19:37.116Z,13.70
2018-07-30T00:22:05.631Z,14.33
2018-07-30T00:24:34.094Z,13.87
2018-07-30T00:27:02.304Z,13.10
2018-07-30T00:29:30.795Z,14.13
2018-07-30T00:31:59.329Z,13.87
2018-07-30T00:34:27.900Z,12.93
2018-07-30T00:36:56.472Z,14.03
2018-07-30T00:39:24.977Z,14.13
2018-07-30T00:41:53.427Z,14.53
2018-07-30T00:44:21.873Z,14.23
2018-07-30T00:46:49.991Z,12.37
2018-07-30T00:49:18.693Z,14.00
2018-07-30T00:51:47.167Z,13.57
2018-07-30T00:54:15.610Z,14.17
2018-07-30T00:56:44.129Z,13.20
2018-07-30T00:59:12.600Z,14.07
2018-07-30T01:01:40.753Z,15.13
2018-07-30T01:04:09.301Z,14.47
2018-07-30T01:06:37.497Z,14.90
2018-07-30T01:09:08.269Z,16.30
2018-07-30T01:11:36.737Z,14.77
2018-07-30T01:14:05.200Z,16.00
2018-07-30T01:16:33.777Z,14.20
2018-07-30T01:19:02.253Z,15.80
2018-07-30T01:21:30.811Z,15.77
2018-07-30T01:23:59.284Z,14.80
2018-07-30T01:26:27.479Z,14.30
2018-07-30T01:28:56.685Z,14.83
2018-07-30T01:31:25.241Z,13.67
2018-07-30T01:33:54.009Z,16.77
2018-07-30T01:36:22.151Z,15.10
2018-07-30T01:38:51.201Z,14.30
2018-07-30T01:41:19.833Z,16.17
2018-07-30T01:43:48.349Z,15.73
2018-07-30T01:46:16.828Z,17.73
2018-07-30T01:48:45.289Z,15.87
2018-07-30T01:51:13.786Z,16.20
2018-07-30T01:53:42.214Z,18.27
2018-07-30T01:56:10.626Z,16.53
2018-07-30T01:58:39.091Z,16.40
2018-07-30T02:01:07.568Z,18.23
2018-07-30T02:03:36.024Z,16.90
2018-07-30T02:06:04.566Z,17.27
2018-07-30T02:08:33.041Z,16.10
2018-07-30T02:11:01.482Z,17.23
2018-07-30T02:13:30.000Z,16.30
2018-07-30T02:15:58.534Z,17.17
2018-07-30T02:18:26.697Z,18.20
2018-07-30T02:20:55.163Z,17.00
2018-07-30T02:23:23.756Z,15.90
2018-07-30T02:25:52.266Z,16.00
2018-07-30T02:28:20.771Z,17.43
2018-07-30T02:30:49.218Z,17.20
2018-07-30T02:33:17.847Z,16.00
2018-07-30T02:35:47.224Z,16.57
2018-07-30T02:38:15.462Z,16.03
2018-07-30T02:40:44.076Z,16.73
2018-07-30T02:43:12.621Z,18.10
2018-07-30T02:45:46.036Z,15.67
2018-07-30T02:48:15.323Z,16.97
2018-07-30T02:50:44.599Z,20.60
2018-07-30T02:53:12.886Z,21.60
2018-07-30T02:55:41.531Z,18.10
2018-07-30T02:58:26.757Z,19.33
2018-07-30T03:00:55.641Z,19.17
2018-07-30T03:03:24.530Z,17.13
2018-07-30T03:05:53.057Z,17.10
2018-07-30T03:08:21.666Z,20.57
2018-07-30T03:10:50.239Z,18.60
2018-07-30T03:13:18.962Z,16.67
2018-07-30T03:15:47.701Z,17.43
2018-07-30T03:18:16.196Z,18.90
2018-07-30T03:20:45.399Z,17.63
2018-07-30T03:23:13.821Z,17.80
2018-07-30T03:25:42.453Z,17.63
2018-07-30T03:28:10.967Z,17.93
2018-07-30T03:30:39.613Z,17.20
2018-07-30T03:33:15.943Z,17.93
2018-07-30T03:35:44.530Z,18.80
2018-07-30T03:38:13.072Z,17.60
2018-07-30T03:40:41.721Z,18.67
2018-07-30T03:43:10.414Z,18.97
2018-07-30T03:45:40.375Z,18.83
2018-07-30T03:48:09.146Z,20.23
2018-07-30T03:50:37.680Z,20.13
2018-07-30T03:53:06.353Z,20.90
2018-07-30T03:55:35.060Z,19.70
2018-07-30T03:58:03.658Z,19.37
2018-07-30T04:00:32.212Z,20.67
2018-07-30T04:03:00.424Z,19.90
2018-07-30T04:05:28.882Z,17.30
2018-07-30T04:07:57.056Z,18.83
2018-07-30T04:10:25.233Z,20.63
2018-07-30T04:12:53.914Z,20.27
2018-07-30T04:15:22.504Z,20.00
2018-07-30T04:17:51.108Z,21.07
2018-07-30T04:20:19.613Z,19.80
2018-07-30T04:22:48.193Z,19.87
2018-07-30T04:25:16.647Z,18.23
2018-07-30T04:27:45.109Z,20.40
2018-07-30T04:30:13.251Z,18.07
2018-07-30T04:32:41.741Z,18.50
2018-07-30T04:35:10.214Z,19.73
2018-07-30T04:37:38.821Z,19.23
2018-07-30T04:40:07.097Z,18.23
2018-07-30T04:42:35.337Z,18.63
2018-07-30T04:45:03.517Z,18.10
2018-07-30T04:47:32.972Z,18.73
2018-07-30T04:50:03.447Z,20.23
2018-07-30T04:52:32.320Z,20.53
2018-07-30T04:55:00.449Z,21.10
2018-07-30T04:57:28.878Z,21.80
2018-07-30T04:59:57.287Z,21.97
2018-07-30T05:02:25.842Z,23.33
2018-07-30T05:04:54.252Z,23.50
2018-07-30T05:07:22.498Z,26.63
2018-07-30T05:09:50.708Z,21.47
2018-07-30T05:12:19.225Z,22.40
2018-07-30T05:14:52.557Z,24.70
2018-07-30T05:17:20.977Z,23.67
2018-07-30T05:19:49.447Z,22.13
2018-07-30T05:22:17.638Z,22.13
2018-07-30T05:24:45.861Z,21.00
2018-07-30T05:27:14.457Z,21.10
2018-07-30T05:29:42.591Z,20.67
2018-07-30T05:32:11.555Z,19.97
2018-07-30T05:34:39.677Z,18.83
2018-07-30T05:37:08.159Z,18.50
2018-07-30T05:39:36.673Z,18.20
2018-07-30T05:42:04.890Z,16.33
2018-07-30T05:44:33.287Z,17.60
2018-07-30T05:47:01.481Z,17.97
2018-07-30T05:49:30.001Z,17.40
2018-07-30T05:51:58.538Z,16.90
2018-07-30T05:54:27.090Z,20.00
2018-07-30T05:56:55.617Z,18.93
2018-07-30T05:59:23.763Z,16.93
2018-07-30T06:01:52.389Z,16.43
2018-07-30T06:04:21.127Z,20.37
2018-07-30T06:06:49.815Z,19.50
2018-07-30T06:09:18.393Z,17.90
2018-07-30T06:11:46.870Z,18.17
2018-07-30T06:14:15.066Z,17.67
2018-07-30T06:16:43.724Z,18.83
2018-07-30T06:19:12.206Z,19.43
2018-07-30T06:21:40.820Z,16.83
2018-07-30T06:24:19.003Z,19.17
2018-07-30T06:29:36.511Z,17.70
2018-07-30T06:32:05.029Z,18.43
2018-07-30T06:34:33.581Z,17.00
2018-07-30T06:37:07.780Z,14.13
2018-07-30T06:39:47.171Z,13.20
2018-07-30T06:42:16.181Z,15.63
2018-07-30T06:44:45.031Z,14.77
2018-07-30T06:47:13.687Z,15.90
2018-07-30T06:49:47.453Z,15.70
2018-07-30T06:52:16.364Z,17.07
2018-07-30T06:54:49.353Z,14.90
2018-07-30T06:57:18.313Z,14.70
2018-07-30T06:59:47.001Z,16.00
2018-07-30T07:02:21.453Z,15.27
2018-07-30T07:04:50.123Z,12.33
2018-07-30T07:07:18.610Z,12.57
2018-07-30T07:09:47.133Z,11.87
2018-07-30T07:12:15.713Z,12.80
2018-07-30T07:14:44.244Z,11.87
2018-07-30T07:17:12.692Z,11.70
2018-07-30T07:19:41.277Z,12.03
2018-07-30T07:22:09.841Z,11.93
2018-07-30T07:24:38.337Z,10.57
2018-07-30T07:27:06.959Z,10.87
2018-07-30T07:29:35.432Z,12.10
2018-07-30T07:32:03.967Z,11.13
2018-07-30T07:34:32.114Z,11.60
2018-07-30T07:37:00.619Z,11.23
2018-07-30T07:39:29.064Z,10.50
2018-07-30T07:41:57.467Z,9.20
2018-07-30T07:44:25.969Z,9.77
2018-07-30T07:46:54.489Z,10.13
2018-07-30T07:49:22.721Z,10.33
2018-07-30T07:51:51.325Z,10.97
2018-07-30T07:54:19.478Z,9.90
2018-07-30T07:56:48.047Z,10.53
2018-07-30T07:59:16.723Z,10.40
2018-07-30T08:01:49.118Z,9.70
2018-07-30T08:04:17.823Z,10.43
2018-07-30T08:06:45.999Z,9.40
2018-07-30T08:09:14.496Z,10.00
2018-07-30T08:11:42.976Z,8.70
2018-07-30T08:14:11.519Z,9.40
2018-07-30T08:16:40.006Z,10.20
2018-07-30T08:19:08.525Z,9.60
2018-07-30T08:21:37.030Z,9.30
2018-07-30T08:24:05.705Z,10.13
2018-07-30T08:26:34.770Z,9.27
2018-07-30T08:29:03.396Z,8.80
2018-07-30T08:31:31.933Z,9.97
2018-07-30T08:34:00.430Z,8.67
2018-07-30T08:36:28.960Z,9.03
2018-07-30T08:38:57.397Z,8.00
2018-07-30T08:41:25.855Z,8.30
2018-07-30T08:43:54.289Z,8.90
2018-07-30T08:46:22.427Z,9.30
2018-07-30T08:48:50.937Z,8.50
2018-07-30T08:51:19.355Z,8.73
2018-07-30T08:53:47.482Z,8.67
2018-07-30T08:56:16.049Z,8.67
2018-07-30T08:58:44.487Z,8.50
2018-07-30T09:01:12.978Z,9.00
2018-07-30T09:03:41.438Z,8.33
2018-07-30T09:06:09.546Z,8.10
2018-07-30T09:08:38.025Z,7.50
2018-07-30T09:11:06.536Z,7.97
2018-07-30T09:13:35.093Z,8.60
2018-07-30T09:16:03.568Z,7.50
2018-07-30T09:18:32.002Z,7.73
2018-07-30T09:21:00.486Z,6.73
2018-07-30T09:23:29.218Z,7.90
2018-07-30T09:25:57.662Z,7.70
2018-07-30T09:28:26.112Z,7.40
2018-07-30T09:30:54.607Z,7.10
2018-07-30T09:33:23.113Z,7.37
2018-07-30T09:35:51.556Z,6.70
2018-07-30T09:38:19.956Z,7.40
2018-07-30T09:40:48.398Z,7.30
2018-07-30T09:43:16.935Z,7.33
2018-07-30T09:45:45.428Z,7.30
2018-07-30T09:48:13.927Z,6.83
2018-07-30T09:50:42.147Z,6.90
2018-07-30T09:53:10.154Z,7.10
2018-07-30T09:55:38.590Z,6.47
2018-07-30T09:58:07.004Z,7.53
2018-07-30T10:00:40.968Z,5.93
2018-07-30T10:03:10.329Z,6.53
2018-07-30T10:05:39.105Z,6.80
2018-07-30T10:08:07.601Z,6.67
2018-07-30T10:10:35.749Z,6.43
2018-07-30T10:13:04.188Z,6.83
2018-07-30T10:15:32.355Z,6.53
2018-07-30T10:18:00.560Z,6.80
2018-07-30T10:20:28.960Z,7.53
2018-07-30T10:22:57.159Z,7.53
2018-07-30T10:25:25.291Z,6.13
2018-07-30T10:27:53.746Z,6.10
2018-07-30T10:30:22.416Z,6.00
2018-07-30T10:32:50.957Z,5.90
2018-07-30T10:35:19.219Z,5.23
2018-07-30T10:37:47.787Z,5.40
2018-07-30T10:40:16.286Z,4.87
2018-07-30T10:42:45.707Z,4.70
2018-07-30T10:45:14.246Z,5.10
2018-07-30T10:47:42.827Z,4.80
2018-07-30T10:50:11.269Z,5.00
2018-07-30T10:52:39.719Z,5.33
2018-07-30T10:55:08.238Z,4.70
2018-07-30T10:57:36.429Z,5.37
2018-07-30T11:00:05.008Z,5.57
2018-07-30T11:02:33.483Z,5.70
2018-07-30T11:05:02.396Z,5.67
2018-07-30T11:07:31.058Z,5.10
2018-07-30T11:09:59.497Z,6.33
2018-07-30T11:12:28.016Z,5.80
2018-07-30T11:14:56.550Z,4.97
2018-07-30T11:17:25.035Z,5.80
2018-07-30T11:19:53.506Z,4.60
2018-07-30T11:22:22.162Z,5.80
2018-07-30T11:24:50.615Z,5.30
2018-07-30T11:27:19.107Z,5.30
2018-07-30T11:29:47.301Z,4.70
2018-07-30T11:32:15.821Z,4.90
2018-07-30T11:34:44.244Z,4.80
2018-07-30T11:37:12.741Z,5.80
2018-07-30T11:39:41.234Z,4.93
2018-07-30T11:42:09.816Z,5.33
2018-07-30T11:44:38.344Z,5.80
2018-07-30T11:47:07.146Z,5.57
2018-07-30T11:49:36.550Z,4.90
2018-07-30T11:52:05.160Z,5.37
2018-07-30T11:54:33.624Z,4.60
2018-07-30T11:57:02.073Z,5.40
2018-07-30T11:59:30.212Z,5.43
2018-07-30T12:01:58.757Z,5.17
2018-07-30T12:04:27.511Z,6.60
2018-07-30T12:06:56.131Z,5.23
2018-07-30T12:09:24.568Z,5.70
2018-07-30T12:11:53.173Z,5.53
2018-07-30T12:14:21.579Z,6.47
2018-07-30T12:16:50.026Z,6.33
2018-07-30T12:19:24.635Z,4.43
2018-07-30T12:21:53.220Z,6.93
2018-07-30T12:24:21.620Z,5.47
2018-07-30T12:26:50.068Z,5.20
2018-07-30T12:29:18.668Z,5.37
2018-07-30T12:31:47.160Z,5.03
2018-07-30T12:34:15.648Z,5.63
2018-07-30T12:36:44.090Z,4.60
2018-07-30T12:39:12.630Z,4.43
2018-07-30T12:41:40.761Z,5.13
2018-07-30T12:44:09.195Z,5.20
2018-07-30T12:46:37.666Z,4.90
2018-07-30T12:49:06.132Z,5.13
2018-07-30T12:51:34.654Z,5.93
2018-07-30T12:54:03.098Z,5.67
2018-07-30T12:56:31.289Z,5.40
2018-07-30T12:58:59.777Z,5.30
2018-07-30T13:01:28.289Z,5.40
2018-07-30T13:03:57.048Z,5.80
2018-07-30T13:06:25.558Z,6.60
2018-07-30T13:08:54.057Z,5.60
2018-07-30T13:11:22.541Z,5.80
2018-07-30T13:13:51.122Z,5.90
2018-07-30T13:16:19.622Z,5.80
2018-07-30T13:18:48.076Z,5.13
2018-07-30T13:21:16.545Z,5.27
2018-07-30T13:23:48.375Z,6.00
2018-07-30T13:26:26.316Z,5.57
2018-07-30T13:28:56.948Z,4.83
2018-07-30T13:31:28.544Z,5.73
2018-07-30T13:33:57.160Z,5.07
2018-07-30T13:36:26.169Z,5.47
2018-07-30T13:38:56.247Z,5.73
2018-07-30T13:44:21.239Z,5.60
2018-07-30T13:46:58.762Z,5.13
2018-07-30T13:49:45.575Z,5.77
2018-07-30T13:52:14.323Z,5.97
2018-07-30T13:54:42.763Z,6.13
2018-07-30T13:57:11.436Z,6.37
2018-07-30T13:59:45.133Z,5.80
2018-07-30T14:02:13.415Z,5.87
2018-07-30T14:04:48.568Z,4.73
2018-07-30T14:07:17.139Z,5.90
2018-07-30T14:09:53.812Z,5.83
2018-07-30T14:12:31.419Z,5.60
2018-07-30T14:15:00.174Z,5.70
2018-07-30T14:17:30.314Z,5.50
2018-07-30T14:19:59.096Z,5.93
2018-07-30T14:22:27.672Z,5.43
2018-07-30T14:24:57.757Z,5.37
2018-07-30T14:27:26.296Z,5.47
2018-07-30T14:29:54.876Z,5.63
2018-07-30T14:32:23.501Z,6.13
2018-07-30T14:34:52.053Z,5.83
2018-07-30T14:37:20.345Z,5.80
2018-07-30T14:39:48.935Z,5.13
2018-07-30T14:42:17.107Z,5.87
2018-07-30T14:44:45.561Z,5.70
2018-07-30T14:47:14.095Z,6.30
2018-07-30T14:49:47.593Z,5.30
2018-07-30T14:52:16.831Z,5.30
2018-07-30T14:54:50.370Z,4.50
2018-07-30T14:57:27.211Z,5.90
2018-07-30T15:00:04.938Z,5.47
2018-07-30T15:02:37.115Z,5.27
2018-07-30T15:05:08.439Z,5.50
2018-07-30T15:07:54.632Z,5.60
2018-07-30T15:10:22.868Z,4.70
2018-07-30T15:12:51.457Z,5.20
2018-07-30T15:15:20.502Z,5.40
2018-07-30T15:18:04.160Z,5.07
2018-07-30T15:23:49.174Z,5.47
2018-07-30T15:26:22.015Z,5.20
2018-07-30T15:29:00.375Z,5.37
2018-07-30T15:31:37.179Z,5.47
2018-07-30T15:37:07.314Z,5.33
2018-07-30T15:39:45.231Z,5.00
2018-07-30T15:42:28.148Z,5.77
2018-07-30T15:45:08.154Z,5.20
2018-07-30T15:47:40.914Z,5.20
2018-07-30T15:50:09.346Z,4.83
2018-07-30T15:52:37.813Z,5.40
2018-07-30T15:55:13.701Z,5.20
2018-07-30T15:57:45.770Z,5.57
2018-07-30T16:00:21.053Z,5.13
2018-07-30T16:02:56.919Z,5.13
2018-07-30T16:05:25.490Z,5.33
2018-07-30T16:07:54.005Z,5.40
2018-07-30T16:10:25.759Z,5.33
2018-07-30T16:12:54.194Z,5.20
2018-07-30T16:15:22.355Z,5.00
2018-07-30T16:17:50.846Z,5.30
2018-07-30T16:20:19.011Z,5.17
2018-07-30T16:22:47.681Z,5.33
2018-07-30T16:25:16.222Z,5.20
2018-07-30T16:27:44.924Z,5.77
2018-07-30T16:30:17.753Z,4.93
2018-07-30T16:32:45.865Z,5.83
2018-07-30T16:35:14.757Z,5.90
2018-07-30T16:37:43.402Z,5.00
2018-07-30T16:40:13.147Z,5.10
2018-07-30T16:42:41.685Z,5.23
2018-07-30T16:45:10.623Z,5.67
2018-07-30T16:47:39.101Z,5.90
2018-07-30T16:50:08.388Z,5.30
2018-07-30T16:52:36.888Z,5.83
2018-07-30T16:55:05.811Z,5.90
2018-07-30T16:57:34.418Z,5.23
2018-07-30T17:00:02.926Z,6.00
2018-07-30T17:02:31.129Z,5.17
2018-07-30T17:04:59.737Z,5.33
2018-07-30T17:07:28.295Z,5.73
2018-07-30T17:09:56.839Z,5.40
2018-07-30T17:12:25.395Z,5.93
2018-07-30T17:14:53.911Z,6.13
2018-07-30T17:17:22.364Z,5.00
2018-07-30T17:19:50.632Z,6.10
2018-07-30T17:22:19.114Z,5.67
2018-07-30T17:24:47.860Z,5.77
2018-07-30T17:27:18.210Z,5.80
2018-07-30T17:29:47.724Z,5.87
2018-07-30T17:32:30.785Z,6.37
2018-07-30T17:34:59.292Z,6.00
2018-07-30T17:37:27.762Z,5.53
2018-07-30T17:39:56.404Z,6.07
2018-07-30T17:42:24.605Z,6.17
2018-07-30T17:44:53.239Z,6.77
2018-07-30T17:47:21.396Z,6.53
2018-07-30T17:49:49.967Z,5.90
2018-07-30T17:52:18.381Z,7.10
2018-07-30T17:54:46.834Z,6.20
2018-07-30T17:57:15.383Z,6.13
2018-07-30T17:59:43.929Z,6.20
2018-07-30T18:02:12.552Z,6.73
2018-07-30T18:04:41.021Z,6.17
2018-07-30T18:07:09.536Z,6.07
2018-07-30T18:09:37.733Z,5.97
2018-07-30T18:12:06.142Z,5.90
2018-07-30T18:14:34.728Z,5.70
2018-07-30T18:17:03.317Z,5.67
2018-07-30T18:19:31.911Z,7.00
2018-07-30T18:22:01.472Z,5.80
2018-07-30T18:24:29.892Z,5.90
2018-07-30T18:26:59.065Z,5.30
2018-07-30T18:29:27.561Z,5.80
2018-07-30T18:31:56.122Z,5.80
2018-07-30T18:34:24.637Z,6.27
2018-07-30T18:36:52.786Z,5.73
2018-07-30T18:39:21.448Z,6.63
2018-07-30T18:41:50.159Z,5.90
2018-07-30T18:44:18.410Z,7.13
2018-07-30T18:46:46.937Z,6.23
2018-07-30T18:49:15.868Z,5.93
2018-07-30T18:51:44.325Z,7.30
2018-07-30T18:54:12.847Z,7.30
2018-07-30T18:56:41.124Z,6.87
2018-07-30T18:59:09.921Z,8.13
2018-07-30T19:01:38.186Z,7.83
2018-07-30T19:04:06.821Z,7.97
2018-07-30T19:06:35.117Z,8.80
2018-07-30T19:09:03.814Z,9.63
2018-07-30T19:11:32.229Z,9.60
2018-07-30T19:14:01.478Z,8.40
2018-07-30T19:16:29.997Z,9.10
2018-07-30T19:18:59.532Z,10.63
2018-07-30T19:21:28.172Z,9.63
2018-07-30T19:23:56.774Z,10.80
2018-07-30T19:26:25.314Z,10.03
2018-07-30T19:28:55.660Z,9.70
2018-07-30T19:31:24.378Z,9.87
2018-07-30T19:33:53.657Z,10.40
2018-07-30T19:36:22.463Z,10.63
2018-07-30T19:38:51.934Z,9.47
2018-07-30T19:41:21.731Z,10.13
2018-07-30T19:43:51.640Z,10.63
2018-07-30T19:46:22.017Z,11.20
2018-07-30T19:48:51.483Z,9.33
2018-07-30T19:51:20.069Z,10.60
2018-07-30T19:53:49.157Z,9.97
2018-07-30T19:56:17.412Z,10.60
2018-07-30T19:58:46.681Z,11.20
2018-07-30T20:01:15.319Z,10.63
2018-07-30T20:03:44.438Z,10.30
2018-07-30T20:06:13.711Z,10.13
2018-07-30T20:08:42.255Z,12.30
2018-07-30T20:11:11.055Z,9.20
2018-07-30T20:13:41.322Z,11.33
2018-07-30T20:16:10.067Z,11.10
2018-07-30T20:18:38.668Z,11.50
2018-07-30T20:21:08.343Z,11.63
2018-07-30T20:23:37.160Z,11.73
2018-07-30T20:26:05.523Z,10.70
2018-07-30T20:28:34.142Z,11.00
2018-07-30T20:31:02.473Z,10.93
2018-07-30T20:33:31.154Z,13.40
2018-07-30T20:36:00.124Z,10.63
2018-07-30T20:38:29.289Z,11.53
2018-07-30T20:40:58.512Z,11.93
2018-07-30T20:43:27.591Z,12.23
2018-07-30T20:45:56.298Z,10.67
2018-07-30T20:48:24.529Z,12.07
2018-07-30T20:50:54.004Z,13.23
2018-07-30T20:53:23.532Z,12.47
2018-07-30T20:55:52.383Z,12.17
2018-07-30T20:58:21.005Z,12.23
2018-07-30T21:00:49.600Z,12.13
2018-07-30T21:03:19.123Z,12.50
2018-07-30T21:05:47.715Z,13.47
2018-07-30T21:08:16.689Z,12.03
2018-07-30T21:10:46.062Z,14.93
2018-07-30T21:13:17.013Z,12.97
2018-07-30T21:15:46.129Z,12.80
2018-07-30T21:18:15.072Z,13.70
2018-07-30T21:20:43.817Z,14.30
2018-07-30T21:23:13.927Z,13.10
2018-07-30T21:25:42.510Z,13.17
2018-07-30T21:28:11.220Z,14.40
2018-07-30T21:30:39.841Z,14.43
2018-07-30T21:33:09.169Z,15.07
2018-07-30T21:35:38.233Z,14.70
2018-07-30T21:38:07.027Z,14.67
2018-07-30T21:40:35.596Z,15.43
2018-07-30T21:43:03.897Z,13.80
2018-07-30T21:45:32.151Z,15.20
2018-07-30T21:48:00.875Z,16.17
2018-07-30T21:50:29.572Z,16.43
2018-07-30T21:52:58.241Z,14.80
2018-07-30T21:55:26.769Z,15.67
2018-07-30T21:57:55.582Z,15.40
2018-07-30T22:00:25.807Z,15.53
2018-07-30T22:02:55.734Z,16.00
2018-07-30T22:05:23.905Z,16.83
2018-07-30T22:07:52.042Z,15.33
2018-07-30T22:10:22.636Z,15.57
2018-07-30T22:12:52.514Z,15.03
2018-07-30T22:15:21.602Z,16.43
2018-07-30T22:17:50.538Z,17.20
2018-07-30T22:20:19.068Z,15.87
2018-07-30T22:22:47.618Z,15.43
2018-07-30T22:25:16.284Z,15.37
2018-07-30T22:27:44.754Z,14.63
2018-07-30T22:30:13.433Z,15.47
2018-07-30T22:32:41.684Z,15.33
2018-07-30T22:35:10.380Z,14.87
2018-07-30T22:37:38.625Z,17.73
2018-07-30T22:40:07.289Z,16.60
2018-07-30T22:42:35.606Z,16.43
2018-07-30T22:45:03.971Z,17.80
2018-07-30T22:47:32.597Z,16.93
2018-07-30T22:50:01.038Z,17.60
2018-07-30T22:52:29.650Z,16.10
2018-07-30T22:54:57.804Z,18.47
2018-07-30T22:57:26.293Z,16.80
2018-07-30T22:59:54.788Z,16.60
2018-07-30T23:02:23.502Z,15.83
2018-07-30T23:04:53.020Z,17.07
2018-07-30T23:07:22.052Z,17.30
2018-07-30T23:09:50.362Z,16.50
2018-07-30T23:12:19.005Z,17.53
2018-07-30T23:14:47.994Z,15.57
2018-07-30T23:17:16.177Z,16.57
2018-07-30T23:19:44.777Z,17.90
2018-07-30T23:22:13.494Z,18.07
2018-07-30T23:24:41.676Z,18.47
2018-07-30T23:27:10.146Z,17.70
2018-07-30T23:29:39.749Z,17.90
2018-07-30T23:32:08.447Z,17.10
2018-07-30T23:34:37.103Z,18.20
2018-07-30T23:37:05.424Z,17.10
2018-07-30T23:39:33.839Z,17.27
2018-07-30T23:42:02.380Z,18.37
2018-07-30T23:44:30.796Z,17.53
2018-07-30T23:46:59.398Z,17.33
2018-07-30T23:49:27.515Z,16.70
2018-07-30T23:51:56.094Z,18.50
2018-07-30T23:54:24.591Z,17.97
2018-07-30T23:56:53.088Z,19.67
2018-07-30T23:59:22.226Z,18.57
